SBJP/JPA METAR and TAF weather

Enter ICAO airport designator
Station Type Date Time Source
SBJP METAR 2024/04/18 07:00 UTC NOAA

SBJP 180700Z 00000KT 9999 BKN019 25/24 Q1009


Station Type Date Time Source
SBJP Decoded METAR 2024/04/18 07:00 UTC NOAA

Joao Pessoa, Brazil (SBJP) 07-06S 034-52W
Apr 18, 2024 - 03:00 AM EDT / 2024.04.18 0700 UTC
Wind: Calm:0
Visibility: greater than 7 mile(s):0
Sky conditions: mostly cloudy
Temperature: 77 F (25 C)
Dew Point: 75 F (24 C)
Relative Humidity: 94%
Pressure (altimeter): 29.80 in. Hg (1009 hPa)
ob: SBJP 180700Z 00000KT 9999 BKN019 25/24 Q1009
cycle: 7

Station Type Date Time Source
SBJP TAF 2024/04/18 18:10 UTC NOAA